Mission Field
KLVM : now visible

Airfield :











YOU CAN JOIN US ON...

 
LOGIN :

Register | Disclaimer

   EN    FR    IT 

 









Legend :    VFR   Marginal VFR   IFR   Intensive IFR   Very Intensive IFR
Visi :
Ceiling :
>= 8 km
>= 3000ft
5 to 8 km
1000 to 3000 ft
1500m to 5 km
500 to 1000 ft
800 to 1500m
200 to 500 ft
< 800m
< 200 ft
Symbols :   Thunderstorms  Fog  Heavy snow  Heavy precipitations  Wind > 20 kt






- Airport Elevation : 4660 ft


KLVM - Mission Field

CURRENT METAR :
  • 250753Z AUTO 31006KT 10SM CLR 03/01 A3012 RMK AO2 SLP199 T00330011

EXPIRED METARs :
  • 250653Z AUTO 19004KT 10SM CLR 03/01 A3012 RMK AO2 SLP200 T00280011 401500028
  • 250553Z AUTO 20003KT 10SM CLR 05/02 A3011 RMK AO2 SLP197 T00500022 10139 20050 51004

TAF KLVM
Valid from the 25 at 06:00 until the 26 at 06:00 UTC


250525Z 2506/2606 23008KT P6SM BKN080
FM250900 24010KT P6SM SCT080
FM251700 24014G24KT P6SM SCT080
KZLC FIR / North America



MET'MAP, your aeronautical weather chart ! - Copyright ORBIFLY December 2007 - Disclaimer

ORBIFLY MET'MAP TEAM :

Programming & Development : Alexandra Zaïnal
Concept & original design : Baudouin d'Aumeries
Assistance for programming : Marc-Olivier Méhu
Technical & hardware support : Manuel Goepfert

Contact : metmap@orbifly.com




SOURCES & CREDITS :

   NOAA       Earth
Advisory